TFM - Tactical Decision Aid (Experimental) INFO Settings
ID: Runway Winds: CIG/VIS Threshold: METAR Board:

KDNL - Augusta-Daniel Field

Updated at: 0858 UTC 19 Jun 2018
Latest TAF at: 0844 UTC 19 Jun 2018

TAF Board

Time0853Z19/09Z19/10Z19/11Z19/12Z19/13Z19/14Z19/15Z19/16Z19/17Z19/18Z19/19Z19/20Z19/21Z
TypeOBSPRVLPRVLPRVLPRVLPRVLPRVLPRVLPRVLPRVLPRVLPRVLPRVLPRVL
VIS10>6>6>6>6>6>6>6>6>6>6>6>6>6
CIG----------------------------
CoverCLRFEWFEWFEWFEWFEWFEWFEWSCTSCTSCTSCTSCTSCT
FltCatVFRVFRVFRVFRVFRVFRVFRVFRVFRVFRVFRVFRVFRVFR
WX----------------------------
WDir220VRBVRBVRBVRBVRBVRBVRB210210210210210210
WSpd34444444666666
WGst----------------------------
TAF
KDNL 190844Z 1909/2006 VRB04KT P6SM FEW250
  FM191600 21006KT P6SM SCT050


METAR
KDNL 190853Z AUTO 22003KT 10SM CLR 25/23 A3003 RMK AO2 SLP164 T02500228 55003
KDNL 190753Z AUTO 21004KT 10SM CLR 25/23 A3003 RMK AO2 SLP162 T02500228

TAF/METAR Board Legend

Potential Impact
  None Marginal Slight Moderate High
Visibility (sm) >5 3≤X≤5 2≤X<3 1≤X<2 <1
Ceiling (100 ft) >30 10≤X≤30 8≤X<10 5≤X<8 <5
Wind Speed (kt) <10 10≤X<20 20≤X<30 ≥30
Wind Gust (kt) <15 15≤X<25 25≤X<35 ≥35
Weather No Wx Reported VCTS -TS,-FZRA TS,FZRA +TS,+FZRA